Time;durP1;ratioP1;P1;durP2;ratioP2;P2;SDS_P1;SDS_P2;PMS_P1;PMS_P2;Temp;Humidity;BMP_temperature;BMP_pressure;BME280_temperature;BME280_humidity;BME280_pressure;Samples;Min_cycle;Max_cycle;Signal;HPM_P1;HPM_P2
2024/01/03 00:00:18;;;;;;;;;;;7.90;99.90;;;;;;4993021;28;20615;-77
2024/01/03 00:02:44;;;;;;;;;;;8.00;99.90;;;;;;5042371;28;20414;-77
2024/01/03 00:05:10;;;;;;;;;;;8.00;99.90;;;;;;5010440;28;19959;-78
2024/01/03 00:07:37;;;;;;;;;;;8.00;99.90;;;;;;5001146;28;20387;-77
2024/01/03 00:10:14;;;;;;;;;;;8.00;99.90;;;;;;5011309;28;19936;-76
2024/01/03 00:12:40;;;;;;;;;;;8.00;99.90;;;;;;4946584;28;19925;-75
2024/01/03 00:15:32;;;;;;;;;;;8.00;99.90;;;;;;5010623;28;19931;-76
2024/01/03 00:17:58;;;;;;;;;;;8.00;99.90;;;;;;4955614;28;19940;-76
2024/01/03 00:20:23;;;;;;;;;;;8.00;99.90;;;;;;4981303;28;19934;-77
2024/01/03 00:22:52;;;;;;;;;;;8.00;99.90;;;;;;5020082;28;19939;-77
2024/01/03 00:25:18;;;;;;;;;;;7.90;99.90;;;;;;4977126;28;19925;-76
2024/01/03 00:27:45;;;;;;;;;;;7.90;99.90;;;;;;4992469;28;20524;-73
2024/01/03 00:30:13;;;;;;;;;;;7.90;99.90;;;;;;4979342;28;19925;-78
2024/01/03 00:32:38;;;;;;;;;;;7.90;99.90;;;;;;4981666;28;19943;-78
2024/01/03 00:35:08;;;;;;;;;;;7.90;99.90;;;;;;4992663;28;19917;-76
2024/01/03 00:37:35;;;;;;;;;;;7.90;99.90;;;;;;4965446;28;20542;-77
2024/01/03 00:40:07;;;;;;;;;;;7.80;99.90;;;;;;5015490;28;19925;-78
2024/01/03 00:42:38;;;;;;;;;;;7.80;99.90;;;;;;4963298;28;19998;-75
2024/01/03 00:45:05;;;;;;;;;;;7.70;99.90;;;;;;4991970;28;20532;-77
2024/01/03 00:47:31;;;;;;;;;;;7.80;99.90;;;;;;4980873;28;19925;-77
2024/01/03 00:50:00;;;;;;;;;;;7.70;99.90;;;;;;4972616;28;19932;-77
2024/01/03 00:52:25;;;;;;;;;;;7.70;99.90;;;;;;4993073;28;20406;-77
2024/01/03 00:54:54;;;;;;;;;;;7.70;99.90;;;;;;5007157;28;20134;-78
2024/01/03 00:57:20;;;;;;;;;;;7.70;99.90;;;;;;4977598;28;19925;-77
2024/01/03 00:59:47;;;;;;;;;;;7.70;99.90;;;;;;5007128;28;19932;-74
2024/01/03 01:02:13;;;;;;;;;;;7.70;99.90;;;;;;4983239;28;20000;-75
2024/01/03 01:04:42;;;;;;;;;;;7.70;99.90;;;;;;5025634;28;19969;-78
2024/01/03 01:07:11;;;;;;;;;;;7.70;99.90;;;;;;4944317;28;19993;-78
2024/01/03 01:09:37;;;;;;;;;;;7.60;99.90;;;;;;4984477;28;20635;-77
2024/01/03 01:12:06;;;;;;;;;;;7.60;99.90;;;;;;4988588;28;19928;-75
2024/01/03 01:14:32;;;;;;;;;;;7.70;99.90;;;;;;5004615;28;20391;-76
2024/01/03 01:17:00;;;;;;;;;;;7.60;99.90;;;;;;4974047;28;21128;-76
2024/01/03 01:19:26;;;;;;;;;;;7.60;99.90;;;;;;5019171;28;20494;-75
2024/01/03 01:21:52;;;;;;;;;;;7.70;99.90;;;;;;4957197;28;19924;-77
2024/01/03 01:24:18;;;;;;;;;;;7.60;99.90;;;;;;4984233;28;20583;-79
2024/01/03 01:26:46;;;;;;;;;;;7.60;99.90;;;;;;4969120;28;19935;-76
2024/01/03 01:29:14;;;;;;;;;;;7.70;99.90;;;;;;4986860;28;19932;-76
2024/01/03 01:31:43;;;;;;;;;;;7.70;99.90;;;;;;4976350;28;20011;-76
2024/01/03 01:34:10;;;;;;;;;;;7.70;99.90;;;;;;4988962;28;19928;-76
2024/01/03 01:36:36;;;;;;;;;;;7.70;99.90;;;;;;4973335;28;19924;-75
2024/01/03 01:39:03;;;;;;;;;;;7.70;99.90;;;;;;4986646;28;19932;-77
2024/01/03 01:41:29;;;;;;;;;;;7.70;99.90;;;;;;4969027;28;19936;-79
2024/01/03 01:43:57;;;;;;;;;;;7.70;99.90;;;;;;5001412;28;20468;-73
2024/01/03 01:46:23;;;;;;;;;;;7.80;99.90;;;;;;5033409;28;20600;-77
2024/01/03 01:48:50;;;;;;;;;;;7.80;99.90;;;;;;4969672;28;19935;-75
2024/01/03 01:51:16;;;;;;;;;;;7.80;99.90;;;;;;5006832;28;19968;-73
2024/01/03 01:53:42;;;;;;;;;;;7.80;99.90;;;;;;4979573;28;19924;-77
2024/01/03 01:56:09;;;;;;;;;;;7.90;99.90;;;;;;4973726;28;19931;-75
2024/01/03 01:58:37;;;;;;;;;;;7.90;99.90;;;;;;4980080;28;19925;-73
2024/01/03 02:01:03;;;;;;;;;;;7.90;99.90;;;;;;5018749;28;20487;-72
2024/01/03 02:03:29;;;;;;;;;;;7.90;99.90;;;;;;4986868;28;19925;-74
2024/01/03 02:05:55;;;;;;;;;;;7.90;99.90;;;;;;5001383;28;19924;-72
2024/01/03 02:08:22;;;;;;;;;;;7.90;99.90;;;;;;4970760;28;19928;-72
2024/01/03 02:10:48;;;;;;;;;;;7.90;99.90;;;;;;5005042;28;20494;-77
2024/01/03 02:13:14;;;;;;;;;;;8.00;99.90;;;;;;4979145;28;20052;-73
2024/01/03 02:15:40;;;;;;;;;;;8.00;99.90;;;;;;5002061;28;21114;-72
2024/01/03 02:18:07;;;;;;;;;;;8.00;99.90;;;;;;4977573;28;19994;-73
2024/01/03 02:20:34;;;;;;;;;;;8.10;99.90;;;;;;4983417;28;19925;-72
2024/01/03 02:23:00;;;;;;;;;;;8.10;99.90;;;;;;4982806;28;19995;-71
2024/01/03 02:25:26;;;;;;;;;;;8.10;99.90;;;;;;4981390;28;19932;-72
2024/01/03 02:27:52;;;;;;;;;;;8.10;99.90;;;;;;4971253;28;19925;-72
2024/01/03 02:30:18;;;;;;;;;;;8.20;99.90;;;;;;4997420;28;19925;-70
2024/01/03 02:32:44;;;;;;;;;;;8.20;99.90;;;;;;4978317;28;19970;-71
2024/01/03 02:35:09;;;;;;;;;;;8.20;99.90;;;;;;5003671;28;19931;-70
2024/01/03 02:37:36;;;;;;;;;;;8.30;99.90;;;;;;4988034;28;20005;-70
2024/01/03 02:40:02;;;;;;;;;;;8.30;99.90;;;;;;4999301;28;19936;-71
2024/01/03 02:42:28;;;;;;;;;;;8.40;99.90;;;;;;4988780;28;19944;-71
2024/01/03 02:44:53;;;;;;;;;;;8.40;99.90;;;;;;5000785;28;19929;-71
2024/01/03 02:47:19;;;;;;;;;;;8.50;99.90;;;;;;4979572;28;20477;-72
2024/01/03 02:49:45;;;;;;;;;;;8.50;99.90;;;;;;4996277;28;19924;-72
2024/01/03 02:52:11;;;;;;;;;;;8.50;99.90;;;;;;4980412;28;19924;-71
2024/01/03 02:54:37;;;;;;;;;;;8.50;99.90;;;;;;4996986;28;19931;-70
2024/01/03 02:57:03;;;;;;;;;;;8.60;99.90;;;;;;4978784;28;19942;-70
2024/01/03 02:59:29;;;;;;;;;;;8.60;99.90;;;;;;5012813;28;20020;-71
2024/01/03 03:01:55;;;;;;;;;;;8.60;99.90;;;;;;4957679;28;20413;-70
2024/01/03 03:04:22;;;;;;;;;;;8.60;99.90;;;;;;4969154;28;19924;-70
2024/01/03 03:06:47;;;;;;;;;;;8.60;99.90;;;;;;4978336;28;19952;-71
2024/01/03 03:09:13;;;;;;;;;;;8.70;99.90;;;;;;5005927;28;19929;-70
2024/01/03 03:11:39;;;;;;;;;;;8.70;99.90;;;;;;4994063;28;19925;-70
2024/01/03 03:14:09;;;;;;;;;;;8.70;99.90;;;;;;5000579;28;20578;-70
2024/01/03 03:16:35;;;;;;;;;;;8.60;99.90;;;;;;4979774;28;20632;-70
2024/01/03 03:19:03;;;;;;;;;;;8.60;99.90;;;;;;4996307;28;20506;-70
2024/01/03 03:21:29;;;;;;;;;;;8.70;99.90;;;;;;4982009;28;19936;-71
2024/01/03 03:23:55;;;;;;;;;;;8.70;99.90;;;;;;5011489;28;19925;-70
2024/01/03 03:26:21;;;;;;;;;;;8.70;99.90;;;;;;4999767;28;19925;-70
2024/01/03 03:28:47;;;;;;;;;;;8.60;99.90;;;;;;4989036;28;19925;-70
2024/01/03 03:31:13;;;;;;;;;;;8.60;99.90;;;;;;4966724;28;19925;-71
2024/01/03 03:33:41;;;;;;;;;;;8.50;99.90;;;;;;4971670;28;20456;-71
2024/01/03 03:36:14;;;;;;;;;;;8.50;99.90;;;;;;4980006;28;19931;-71
2024/01/03 03:38:40;;;;;;;;;;;8.50;99.90;;;;;;4984413;28;19928;-69
2024/01/03 03:41:10;;;;;;;;;;;8.50;99.90;;;;;;5000789;28;19936;-73
2024/01/03 03:43:37;;;;;;;;;;;8.50;99.90;;;;;;4958815;28;19936;-72
2024/01/03 03:46:03;;;;;;;;;;;8.40;99.90;;;;;;4984560;28;20330;-71
2024/01/03 03:48:29;;;;;;;;;;;8.20;99.90;;;;;;4973903;28;19948;-73
2024/01/03 03:50:55;;;;;;;;;;;8.20;99.90;;;;;;5021701;28;19928;-70
2024/01/03 03:53:21;;;;;;;;;;;8.20;99.90;;;;;;4984474;28;19924;-70
2024/01/03 03:55:47;;;;;;;;;;;8.20;99.90;;;;;;4985051;28;19925;-73
2024/01/03 03:58:13;;;;;;;;;;;8.20;99.90;;;;;;4987048;28;19932;-72
2024/01/03 04:00:39;;;;;;;;;;;8.20;99.90;;;;;;5011632;28;19937;-74
2024/01/03 04:03:07;;;;;;;;;;;8.10;99.90;;;;;;4994738;28;19986;-75
2024/01/03 04:05:34;;;;;;;;;;;8.00;99.90;;;;;;5015304;28;19931;-75
2024/01/03 04:08:01;;;;;;;;;;;7.90;99.90;;;;;;4994774;28;19967;-75
2024/01/03 04:10:26;;;;;;;;;;;7.90;99.90;;;;;;5006920;28;19944;-74
2024/01/03 04:12:53;;;;;;;;;;;7.80;99.90;;;;;;4989783;28;20650;-77
2024/01/03 04:15:19;;;;;;;;;;;7.80;99.90;;;;;;4992945;28;20539;-78
2024/01/03 04:17:45;;;;;;;;;;;7.70;99.90;;;;;;4985986;28;19939;-77
2024/01/03 04:20:11;;;;;;;;;;;7.80;99.90;;;;;;4991158;28;19924;-79
2024/01/03 04:22:40;;;;;;;;;;;7.70;99.90;;;;;;4974550;28;19933;-78
2024/01/03 04:25:06;;;;;;;;;;;7.80;99.90;;;;;;5023894;28;19940;-78
2024/01/03 04:27:32;;;;;;;;;;;7.80;99.90;;;;;;4990281;28;19936;-80
2024/01/03 04:29:58;;;;;;;;;;;7.80;99.90;;;;;;5009133;28;19924;-78
2024/01/03 04:32:24;;;;;;;;;;;7.80;99.90;;;;;;4996613;28;20375;-78
2024/01/03 04:34:50;;;;;;;;;;;7.80;99.90;;;;;;5016160;28;20026;-75
2024/01/03 04:37:16;;;;;;;;;;;7.80;99.90;;;;;;4989451;28;20885;-77
2024/01/03 04:39:42;;;;;;;;;;;7.90;99.90;;;;;;5020539;28;19925;-79
2024/01/03 04:42:08;;;;;;;;;;;7.90;99.90;;;;;;4988654;28;19966;-77
2024/01/03 04:44:34;;;;;;;;;;;8.00;99.90;;;;;;5008228;28;20000;-78
2024/01/03 04:47:01;;;;;;;;;;;8.00;99.90;;;;;;4993558;28;19932;-80
2024/01/03 04:49:30;;;;;;;;;;;8.00;99.90;;;;;;4979653;28;20380;-79
2024/01/03 04:51:56;;;;;;;;;;;8.10;99.90;;;;;;4980034;28;20475;-79
2024/01/03 04:54:31;;;;;;;;;;;8.10;99.90;;;;;;4993441;28;19925;-76
2024/01/03 04:56:57;;;;;;;;;;;8.20;99.90;;;;;;4981681;28;19940;-79
2024/01/03 04:59:23;;;;;;;;;;;8.30;99.90;;;;;;5006352;28;19925;-78
2024/01/03 05:01:49;;;;;;;;;;;8.30;99.90;;;;;;4989141;28;19934;-78
2024/01/03 05:04:15;;;;;;;;;;;8.40;99.90;;;;;;4987771;28;19951;-79
2024/01/03 05:06:41;;;;;;;;;;;8.40;99.90;;;;;;4975633;28;19987;-78
2024/01/03 05:09:07;;;;;;;;;;;8.40;99.90;;;;;;4998915;28;19929;-76
2024/01/03 05:11:33;;;;;;;;;;;8.40;99.90;;;;;;4959636;28;19989;-76
2024/01/03 05:13:59;;;;;;;;;;;8.50;99.90;;;;;;4995814;28;19925;-74
2024/01/03 05:16:25;;;;;;;;;;;8.50;99.90;;;;;;4977222;28;20399;-79
2024/01/03 05:18:56;;;;;;;;;;;8.50;99.90;;;;;;4978781;28;20098;-76
2024/01/03 05:21:22;;;;;;;;;;;8.50;99.90;;;;;;5002996;28;19932;-77
2024/01/03 05:23:48;;;;;;;;;;;8.60;99.90;;;;;;4985083;28;19932;-74
2024/01/03 05:26:14;;;;;;;;;;;8.60;99.90;;;;;;5002076;28;20474;-77
2024/01/03 05:28:40;;;;;;;;;;;8.70;99.90;;;;;;4970580;28;19929;-76
2024/01/03 05:31:06;;;;;;;;;;;8.70;99.90;;;;;;5000005;28;20949;-76
2024/01/03 05:33:32;;;;;;;;;;;8.70;99.90;;;;;;4978825;28;19932;-74
2024/01/03 05:35:58;;;;;;;;;;;8.70;99.90;;;;;;5001394;28;19929;-77
2024/01/03 05:38:24;;;;;;;;;;;8.80;99.90;;;;;;4956938;28;20433;-76
2024/01/03 05:40:50;;;;;;;;;;;8.80;99.90;;;;;;4965039;28;20008;-73
2024/01/03 05:43:17;;;;;;;;;;;8.80;99.90;;;;;;4967569;28;19940;-75
2024/01/03 05:45:43;;;;;;;;;;;8.80;99.90;;;;;;4982476;28;19932;-74
2024/01/03 05:48:09;;;;;;;;;;;8.90;99.90;;;;;;4983307;28;19971;-74
2024/01/03 05:50:35;;;;;;;;;;;8.90;99.90;;;;;;5001812;28;19929;-74
2024/01/03 05:53:04;;;;;;;;;;;8.90;99.90;;;;;;4966227;28;19924;-74
2024/01/03 05:55:30;;;;;;;;;;;9.00;99.90;;;;;;5002005;28;19952;-74
2024/01/03 05:57:56;;;;;;;;;;;9.00;99.90;;;;;;4941899;28;19924;-74
2024/01/03 06:00:21;;;;;;;;;;;9.00;99.90;;;;;;4982347;28;19935;-73
2024/01/03 06:02:47;;;;;;;;;;;9.00;99.90;;;;;;4983965;28;19955;-73
2024/01/03 06:05:16;;;;;;;;;;;9.10;99.90;;;;;;5003915;28;19924;-75
2024/01/03 06:07:44;;;;;;;;;;;9.10;99.90;;;;;;4966247;28;19924;-74
2024/01/03 06:10:10;;;;;;;;;;;9.10;99.90;;;;;;4986329;28;20632;-77
2024/01/03 06:12:36;;;;;;;;;;;9.10;99.90;;;;;;4957526;28;19924;-75
2024/01/03 06:15:02;;;;;;;;;;;9.10;99.90;;;;;;5002454;28;20722;-72
2024/01/03 06:17:28;;;;;;;;;;;9.10;99.90;;;;;;4969495;28;19929;-73
2024/01/03 06:19:54;;;;;;;;;;;9.20;99.90;;;;;;4978802;28;19924;-74
2024/01/03 06:22:20;;;;;;;;;;;9.20;99.90;;;;;;4966404;28;19959;-74
2024/01/03 06:24:45;;;;;;;;;;;9.20;99.90;;;;;;5015104;28;19948;-73
2024/01/03 06:27:14;;;;;;;;;;;9.20;99.90;;;;;;4945382;28;21105;-73
2024/01/03 06:29:43;;;;;;;;;;;9.20;99.90;;;;;;5024107;28;20313;-72
2024/01/03 06:32:09;;;;;;;;;;;9.20;99.90;;;;;;4982360;28;19925;-73
2024/01/03 06:34:35;;;;;;;;;;;9.20;99.90;;;;;;4988695;28;19935;-74
2024/01/03 06:37:01;;;;;;;;;;;9.20;99.90;;;;;;4979546;28;20641;-73
2024/01/03 06:39:27;;;;;;;;;;;9.20;99.90;;;;;;5014683;28;19933;-73
2024/01/03 06:41:53;;;;;;;;;;;9.10;99.90;;;;;;4981532;28;19956;-72
2024/01/03 06:44:19;;;;;;;;;;;9.20;99.90;;;;;;5004225;28;19932;-74
2024/01/03 06:46:47;;;;;;;;;;;9.30;99.90;;;;;;4995040;28;22424;-74
2024/01/03 06:49:12;;;;;;;;;;;9.30;99.90;;;;;;5004871;28;19950;-74
2024/01/03 06:51:39;;;;;;;;;;;9.30;99.90;;;;;;4983348;28;20099;-73
2024/01/03 06:54:08;;;;;;;;;;;9.30;99.90;;;;;;5020097;28;19929;-73
2024/01/03 06:56:34;;;;;;;;;;;9.30;99.90;;;;;;4991987;28;19935;-73
2024/01/03 06:59:00;;;;;;;;;;;9.30;99.90;;;;;;5022174;28;19924;-73
2024/01/03 07:01:26;;;;;;;;;;;9.30;99.90;;;;;;4987055;28;19924;-73
2024/01/03 07:03:52;;;;;;;;;;;9.20;99.90;;;;;;4992189;28;21157;-73
2024/01/03 07:06:18;;;;;;;;;;;9.20;99.90;;;;;;5009883;28;19925;-72
2024/01/03 07:08:46;;;;;;;;;;;9.30;99.90;;;;;;4978020;28;19935;-72
2024/01/03 07:11:12;;;;;;;;;;;9.20;99.90;;;;;;5007714;28;19932;-72
2024/01/03 07:13:37;;;;;;;;;;;9.20;99.90;;;;;;4989711;28;20348;-72
2024/01/03 07:16:03;;;;;;;;;;;9.20;99.90;;;;;;5003132;28;20307;-74
2024/01/03 07:18:29;;;;;;;;;;;9.20;99.90;;;;;;4986062;28;19928;-74
2024/01/03 07:20:55;;;;;;;;;;;9.20;99.90;;;;;;5008225;28;19935;-75
2024/01/03 07:23:21;;;;;;;;;;;9.20;99.90;;;;;;4996727;28;20549;-74
2024/01/03 07:25:47;;;;;;;;;;;9.10;99.90;;;;;;5009227;28;19924;-76
2024/01/03 07:28:14;;;;;;;;;;;9.10;99.90;;;;;;4979371;28;20560;-75
2024/01/03 07:30:40;;;;;;;;;;;9.20;99.90;;;;;;5011124;28;20001;-76
2024/01/03 07:33:06;;;;;;;;;;;9.10;99.90;;;;;;4957948;28;20010;-75
2024/01/03 07:35:32;;;;;;;;;;;9.10;99.90;;;;;;4993984;28;19925;-75
2024/01/03 07:37:57;;;;;;;;;;;9.10;99.90;;;;;;4977271;28;19935;-74
2024/01/03 07:40:23;;;;;;;;;;;9.00;99.90;;;;;;5007485;28;19975;-74
2024/01/03 07:42:49;;;;;;;;;;;9.00;99.90;;;;;;4988141;28;19997;-74
2024/01/03 07:45:16;;;;;;;;;;;9.00;99.90;;;;;;4989853;28;19924;-74
2024/01/03 07:47:42;;;;;;;;;;;9.10;99.90;;;;;;4980589;28;19933;-74
2024/01/03 07:50:08;;;;;;;;;;;9.10;99.90;;;;;;5007861;28;19925;-75
2024/01/03 07:52:34;;;;;;;;;;;9.10;99.90;;;;;;4983279;28;19950;-74
2024/01/03 07:55:00;;;;;;;;;;;9.10;99.90;;;;;;4994560;28;20407;-75
2024/01/03 07:57:26;;;;;;;;;;;9.10;99.90;;;;;;4981058;28;19931;-75
2024/01/03 07:59:52;;;;;;;;;;;9.00;99.90;;;;;;5011602;28;19924;-75
2024/01/03 08:02:18;;;;;;;;;;;9.10;99.90;;;;;;4981772;28;19929;-76
2024/01/03 08:04:44;;;;;;;;;;;9.00;99.90;;;;;;5010964;28;19931;-75
2024/01/03 08:07:09;;;;;;;;;;;9.00;99.90;;;;;;4983142;28;20412;-76
2024/01/03 08:09:37;;;;;;;;;;;9.00;99.90;;;;;;5015552;28;21077;-76
2024/01/03 08:12:04;;;;;;;;;;;8.90;99.90;;;;;;4958267;28;19924;-75
2024/01/03 08:14:31;;;;;;;;;;;8.90;99.90;;;;;;4988128;28;19932;-74
2024/01/03 08:16:57;;;;;;;;;;;8.90;99.90;;;;;;4980633;28;19924;-74
2024/01/03 08:19:23;;;;;;;;;;;8.90;99.90;;;;;;4997836;28;19929;-75
2024/01/03 08:21:49;;;;;;;;;;;8.90;99.90;;;;;;4978716;28;20049;-75
2024/01/03 08:24:15;;;;;;;;;;;8.90;99.90;;;;;;4987581;28;19940;-75
2024/01/03 08:26:41;;;;;;;;;;;9.00;99.90;;;;;;4982189;28;20004;-76
2024/01/03 08:29:10;;;;;;;;;;;8.90;99.90;;;;;;5001991;28;19925;-74
2024/01/03 08:31:36;;;;;;;;;;;8.90;99.90;;;;;;4954545;28;19940;-76
2024/01/03 08:34:02;;;;;;;;;;;9.00;99.90;;;;;;5021021;28;19933;-76
2024/01/03 08:36:44;;;;;;;;;;;9.00;99.90;;;;;;5017483;28;20006;-75
2024/01/03 08:39:10;;;;;;;;;;;9.00;99.90;;;;;;5023627;28;19923;-76
2024/01/03 08:41:37;;;;;;;;;;;9.10;99.90;;;;;;4966876;28;19931;-75
2024/01/03 08:44:05;;;;;;;;;;;9.10;99.90;;;;;;4989865;28;19933;-75
2024/01/03 08:46:34;;;;;;;;;;;9.20;99.90;;;;;;4974952;28;19947;-74
2024/01/03 08:49:01;;;;;;;;;;;9.20;99.90;;;;;;5016628;28;20012;-75
2024/01/03 08:51:35;;;;;;;;;;;9.20;99.90;;;;;;4990869;28;19925;-75
2024/01/03 08:54:01;;;;;;;;;;;9.10;99.90;;;;;;4988801;28;19932;-75
2024/01/03 08:56:27;;;;;;;;;;;9.10;99.90;;;;;;4972801;28;19941;-75
2024/01/03 08:58:53;;;;;;;;;;;9.10;99.90;;;;;;4988761;28;19925;-76
2024/01/03 09:01:20;;;;;;;;;;;9.20;99.90;;;;;;5006604;28;19924;-75
2024/01/03 09:03:47;;;;;;;;;;;9.20;99.90;;;;;;4986995;28;19939;-74
2024/01/03 09:06:14;;;;;;;;;;;9.20;99.90;;;;;;5018255;28;19928;-75
2024/01/03 09:08:40;;;;;;;;;;;9.10;99.90;;;;;;4940847;28;19925;-75
2024/01/03 09:11:10;;;;;;;;;;;9.10;99.90;;;;;;5012738;28;19944;-74
2024/01/03 09:13:39;;;;;;;;;;;9.10;99.90;;;;;;4971020;28;19936;-74
2024/01/03 09:16:11;;;;;;;;;;;8.90;99.90;;;;;;5009300;28;19929;-75
2024/01/03 09:18:37;;;;;;;;;;;8.80;99.90;;;;;;4986138;28;19925;-75
2024/01/03 09:21:03;;;;;;;;;;;8.70;99.90;;;;;;5007179;28;19925;-76
2024/01/03 09:23:29;;;;;;;;;;;8.70;99.90;;;;;;4958821;28;19952;-76
2024/01/03 09:25:59;;;;;;;;;;;8.70;99.90;;;;;;5012223;28;20168;-76
2024/01/03 09:28:25;;;;;;;;;;;8.60;99.90;;;;;;4989296;28;19929;-76
2024/01/03 09:30:51;;;;;;;;;;;8.60;99.90;;;;;;5009906;28;19925;-76
2024/01/03 09:33:17;;;;;;;;;;;8.60;99.90;;;;;;4992940;28;19936;-75
2024/01/03 09:35:44;;;;;;;;;;;8.70;99.90;;;;;;5004954;28;19935;-75
2024/01/03 09:38:10;;;;;;;;;;;8.60;99.90;;;;;;4987143;28;19928;-75
2024/01/03 09:40:36;;;;;;;;;;;8.70;99.90;;;;;;5006011;28;19988;-75
2024/01/03 09:43:02;;;;;;;;;;;8.80;99.90;;;;;;4973552;28;20010;-74
2024/01/03 09:45:28;;;;;;;;;;;8.80;99.90;;;;;;5003283;28;19929;-75
2024/01/03 09:47:54;;;;;;;;;;;8.90;99.90;;;;;;4982361;28;19924;-74
2024/01/03 09:50:21;;;;;;;;;;;8.90;99.90;;;;;;5007674;28;19932;-75
2024/01/03 09:52:48;;;;;;;;;;;9.00;99.90;;;;;;4936964;28;20315;-75
2024/01/03 09:55:14;;;;;;;;;;;9.00;99.90;;;;;;4984875;28;19925;-74
2024/01/03 09:57:40;;;;;;;;;;;9.10;99.90;;;;;;4959586;28;19924;-74
2024/01/03 10:00:08;;;;;;;;;;;9.20;99.90;;;;;;4988693;28;19924;-75
2024/01/03 10:02:36;;;;;;;;;;;9.30;99.90;;;;;;4935118;28;19929;-74
2024/01/03 10:05:05;;;;;;;;;;;9.30;99.90;;;;;;4993730;28;20234;-74
2024/01/03 10:07:30;;;;;;;;;;;9.30;99.90;;;;;;4985386;28;19932;-74
2024/01/03 10:09:56;;;;;;;;;;;9.30;99.90;;;;;;4976364;28;19931;-74
2024/01/03 10:12:22;;;;;;;;;;;9.40;99.90;;;;;;4969851;28;20476;-74
2024/01/03 10:14:49;;;;;;;;;;;9.40;99.90;;;;;;5003809;28;20398;-75
2024/01/03 10:17:15;;;;;;;;;;;9.40;99.90;;;;;;4967666;28;19933;-74
2024/01/03 10:19:41;;;;;;;;;;;9.40;99.90;;;;;;5013636;28;19925;-74
2024/01/03 10:22:07;;;;;;;;;;;9.50;99.90;;;;;;4960238;28;19928;-74
2024/01/03 10:24:39;;;;;;;;;;;9.60;99.90;;;;;;4989815;28;19942;-74
2024/01/03 10:27:09;;;;;;;;;;;9.60;99.90;;;;;;4967717;28;19925;-73
2024/01/03 10:29:35;;;;;;;;;;;9.70;99.90;;;;;;4988070;28;20592;-74
2024/01/03 10:32:05;;;;;;;;;;;9.70;99.90;;;;;;4978830;28;19932;-75
2024/01/03 10:34:31;;;;;;;;;;;9.70;99.90;;;;;;4991008;28;19928;-74
2024/01/03 10:36:58;;;;;;;;;;;9.70;99.90;;;;;;4973831;28;20019;-76
2024/01/03 10:39:27;;;;;;;;;;;9.70;99.90;;;;;;5000811;28;19924;-74
2024/01/03 10:41:53;;;;;;;;;;;9.70;99.90;;;;;;4970306;28;21045;-74
2024/01/03 10:44:19;;;;;;;;;;;9.70;99.90;;;;;;4983558;28;19928;-74
2024/01/03 10:46:46;;;;;;;;;;;9.70;99.90;;;;;;4970761;28;19933;-74
2024/01/03 10:49:18;;;;;;;;;;;9.80;99.90;;;;;;4996478;28;19929;-73
2024/01/03 10:51:45;;;;;;;;;;;9.80;99.90;;;;;;4984620;28;19928;-74
2024/01/03 10:54:11;;;;;;;;;;;9.90;99.90;;;;;;5007420;28;19935;-75
2024/01/03 10:56:41;;;;;;;;;;;9.90;99.90;;;;;;4966489;28;19935;-75
2024/01/03 10:59:08;;;;;;;;;;;10.00;99.90;;;;;;4978067;28;19924;-74
2024/01/03 11:02:09;;;;;;;;;;;10.00;99.90;;;;;;4986420;28;19940;-74
2024/01/03 11:04:50;;;;;;;;;;;9.90;99.90;;;;;;4979070;28;19929;-74
2024/01/03 11:07:22;;;;;;;;;;;9.90;99.90;;;;;;4952512;28;20279;-74
2024/01/03 11:09:51;;;;;;;;;;;9.80;99.90;;;;;;4966072;28;19955;-73
2024/01/03 11:12:19;;;;;;;;;;;9.80;99.90;;;;;;4988040;28;19925;-74
2024/01/03 11:14:45;;;;;;;;;;;9.70;99.90;;;;;;4999125;28;20655;-73
2024/01/03 11:17:11;;;;;;;;;;;9.70;99.90;;;;;;4976494;28;19935;-73
2024/01/03 11:19:38;;;;;;;;;;;9.70;99.90;;;;;;5005642;28;19925;-74
2024/01/03 11:22:04;;;;;;;;;;;9.60;99.90;;;;;;4951982;28;19924;-74
2024/01/03 11:24:33;;;;;;;;;;;9.70;99.90;;;;;;4999031;28;19932;-73
2024/01/03 11:27:05;;;;;;;;;;;9.70;99.90;;;;;;4974790;28;19924;-73
2024/01/03 11:29:48;;;;;;;;;;;9.60;99.90;;;;;;5011466;28;19932;-74
2024/01/03 11:32:15;;;;;;;;;;;9.60;99.90;;;;;;4981804;28;20355;-74
2024/01/03 11:34:42;;;;;;;;;;;9.60;99.90;;;;;;4992196;28;19924;-73
2024/01/03 11:37:11;;;;;;;;;;;9.60;99.90;;;;;;4983059;28;19933;-72
2024/01/03 11:39:42;;;;;;;;;;;9.60;99.90;;;;;;4972853;28;19925;-74
2024/01/03 11:42:10;;;;;;;;;;;9.70;99.90;;;;;;4957796;28;19936;-74
2024/01/03 11:44:36;;;;;;;;;;;9.70;99.90;;;;;;4984061;28;19940;-74
2024/01/03 11:47:03;;;;;;;;;;;9.70;99.90;;;;;;4978140;28;19925;-75
2024/01/03 11:49:29;;;;;;;;;;;9.70;99.90;;;;;;5009817;28;19924;-75
2024/01/03 11:51:55;;;;;;;;;;;9.80;99.90;;;;;;4952014;28;21091;-73
2024/01/03 11:54:21;;;;;;;;;;;9.80;99.90;;;;;;4957187;28;19931;-73
2024/01/03 11:56:49;;;;;;;;;;;9.90;99.90;;;;;;4975159;28;20855;-73
2024/01/03 11:59:21;;;;;;;;;;;9.90;99.90;;;;;;5013404;28;19924;-74
2024/01/03 12:01:58;;;;;;;;;;;9.90;99.90;;;;;;4974789;28;19928;-72
2024/01/03 12:04:24;;;;;;;;;;;10.00;99.90;;;;;;5011930;28;19929;-74
2024/01/03 12:07:00;;;;;;;;;;;9.90;99.90;;;;;;4973340;28;19924;-74
2024/01/03 12:09:29;;;;;;;;;;;9.90;99.90;;;;;;4993130;28;19955;-74
2024/01/03 12:11:55;;;;;;;;;;;9.80;99.90;;;;;;4956229;28;20463;-74
2024/01/03 12:14:21;;;;;;;;;;;9.80;99.90;;;;;;4988378;28;19929;-73
2024/01/03 12:16:53;;;;;;;;;;;9.80;99.90;;;;;;4957573;28;19929;-73
2024/01/03 12:19:32;;;;;;;;;;;9.90;99.90;;;;;;5012837;28;19952;-73
2024/01/03 12:21:58;;;;;;;;;;;9.90;99.90;;;;;;4973766;28;20901;-74
2024/01/03 12:24:41;;;;;;;;;;;10.00;99.90;;;;;;5010945;28;19928;-74
2024/01/03 12:27:07;;;;;;;;;;;9.80;99.90;;;;;;4960980;28;19928;-74
2024/01/03 12:29:34;;;;;;;;;;;9.90;99.90;;;;;;5007844;28;19924;-74
2024/01/03 12:32:14;;;;;;;;;;;10.00;99.90;;;;;;4974581;28;19944;-74
2024/01/03 12:34:40;;;;;;;;;;;10.00;99.90;;;;;;4962433;28;20548;-74
2024/01/03 12:37:06;;;;;;;;;;;10.00;99.90;;;;;;4952464;28;19936;-73
2024/01/03 12:39:38;;;;;;;;;;;10.00;99.90;;;;;;5013809;28;19929;-72
2024/01/03 12:42:04;;;;;;;;;;;10.10;99.90;;;;;;4953374;28;19936;-73
2024/01/03 12:44:31;;;;;;;;;;;10.00;99.90;;;;;;5001344;28;20529;-73
2024/01/03 12:46:57;;;;;;;;;;;10.00;99.90;;;;;;4987611;28;20559;-73
2024/01/03 12:49:23;;;;;;;;;;;9.90;99.90;;;;;;4983647;28;19924;-73
2024/01/03 12:51:49;;;;;;;;;;;9.90;99.90;;;;;;4949712;28;20444;-73
2024/01/03 12:54:18;;;;;;;;;;;9.90;99.90;;;;;;4999353;28;19951;-73
2024/01/03 12:56:44;;;;;;;;;;;10.00;99.90;;;;;;4987537;28;19933;-73
2024/01/03 12:59:10;;;;;;;;;;;10.00;99.90;;;;;;5011468;28;19928;-73
2024/01/03 13:01:36;;;;;;;;;;;9.90;99.90;;;;;;4967883;28;19932;-73
2024/01/03 13:04:02;;;;;;;;;;;9.90;99.90;;;;;;4998102;28;19928;-73
2024/01/03 13:06:28;;;;;;;;;;;9.80;99.90;;;;;;4989599;28;19925;-74
2024/01/03 13:08:53;;;;;;;;;;;9.80;99.90;;;;;;5001360;28;19935;-73
2024/01/03 13:11:19;;;;;;;;;;;9.80;99.90;;;;;;5001100;28;19936;-74
2024/01/03 13:13:47;;;;;;;;;;;9.80;99.90;;;;;;4953862;28;20064;-74
2024/01/03 13:16:13;;;;;;;;;;;9.70;99.90;;;;;;4998726;28;19932;-74
2024/01/03 13:18:40;;;;;;;;;;;9.70;99.90;;;;;;4971837;28;20442;-74
2024/01/03 13:21:08;;;;;;;;;;;9.70;99.90;;;;;;4985989;28;19925;-74
2024/01/03 13:23:34;;;;;;;;;;;9.60;99.90;;;;;;4988300;28;19929;-73
2024/01/03 13:26:00;;;;;;;;;;;9.50;99.90;;;;;;4987194;28;19983;-75
2024/01/03 13:28:26;;;;;;;;;;;9.40;99.90;;;;;;4971728;28;19928;-74
2024/01/03 13:30:52;;;;;;;;;;;9.30;99.90;;;;;;4988521;28;20609;-74
2024/01/03 13:33:18;;;;;;;;;;;9.30;99.90;;;;;;4980325;28;19924;-74
2024/01/03 13:35:44;;;;;;;;;;;9.20;99.90;;;;;;5001324;28;19931;-74
2024/01/03 13:38:11;;;;;;;;;;;9.20;99.90;;;;;;4963186;28;19963;-75
2024/01/03 13:40:39;;;;;;;;;;;9.20;99.90;;;;;;4998342;28;19951;-75
2024/01/03 13:43:05;;;;;;;;;;;9.20;99.90;;;;;;4981090;28;20507;-75
2024/01/03 13:45:31;;;;;;;;;;;9.30;99.90;;;;;;4984527;28;20469;-75
2024/01/03 13:47:57;;;;;;;;;;;9.40;99.90;;;;;;4985439;28;19935;-75
2024/01/03 13:50:23;;;;;;;;;;;9.30;99.90;;;;;;5000899;28;19925;-74
2024/01/03 13:52:49;;;;;;;;;;;9.40;99.90;;;;;;4962705;28;19929;-74
2024/01/03 13:55:15;;;;;;;;;;;9.40;99.90;;;;;;4986231;28;20934;-75
2024/01/03 13:57:41;;;;;;;;;;;9.40;99.90;;;;;;4976276;28;19927;-74
2024/01/03 14:00:09;;;;;;;;;;;9.40;99.90;;;;;;4977081;28;19925;-74
2024/01/03 14:02:35;;;;;;;;;;;9.30;99.90;;;;;;4972689;28;19925;-74
2024/01/03 14:05:01;;;;;;;;;;;9.30;99.90;;;;;;5002508;28;19929;-73
2024/01/03 14:07:27;;;;;;;;;;;9.30;99.90;;;;;;4969171;28;19929;-74
2024/01/03 14:09:53;;;;;;;;;;;9.30;99.90;;;;;;5016173;28;19924;-72
2024/01/03 14:12:19;;;;;;;;;;;9.30;99.90;;;;;;4972671;28;19936;-73
2024/01/03 14:14:45;;;;;;;;;;;9.30;99.90;;;;;;5006177;28;19929;-74
2024/01/03 14:17:11;;;;;;;;;;;9.30;99.90;;;;;;4971969;28;19925;-74
2024/01/03 14:19:38;;;;;;;;;;;9.30;99.90;;;;;;4995834;28;20392;-74
2024/01/03 14:22:05;;;;;;;;;;;9.30;99.90;;;;;;4969429;28;19929;-74
2024/01/03 14:24:31;;;;;;;;;;;9.30;99.90;;;;;;5000956;28;19940;-74
2024/01/03 14:26:56;;;;;;;;;;;9.30;99.90;;;;;;4967901;28;20920;-75